createdAt,value
2024-01-22T00:01:23.989Z,18.92
2024-01-22T00:04:26.758Z,16.58
2024-01-22T00:07:29.522Z,17.40
2024-01-22T00:10:32.211Z,16.80
2024-01-22T00:13:34.873Z,16.17
2024-01-22T00:16:41.096Z,18.45
2024-01-22T00:19:43.955Z,15.70
2024-01-22T00:22:46.708Z,16.83
2024-01-22T00:25:49.374Z,15.53
2024-01-22T00:28:52.007Z,17.43
2024-01-22T00:31:54.666Z,15.95
2024-01-22T00:34:57.378Z,17.48
2024-01-22T00:38:00.118Z,15.38
2024-01-22T00:41:05.417Z,15.80
2024-01-22T00:44:08.205Z,16.00
2024-01-22T00:47:11.098Z,15.35
2024-01-22T00:50:14.144Z,15.32
2024-01-22T00:53:16.810Z,15.32
2024-01-22T00:56:19.492Z,14.53
2024-01-22T00:59:22.143Z,15.30
2024-01-22T01:02:24.789Z,15.20
2024-01-22T01:05:28.111Z,14.07
2024-01-22T01:08:33.468Z,14.00
2024-01-22T01:11:36.277Z,14.30
2024-01-22T01:14:38.977Z,15.20
2024-01-22T01:17:41.690Z,15.10
2024-01-22T01:20:44.508Z,15.90
2024-01-22T01:23:47.173Z,17.35
2024-01-22T01:26:53.081Z,17.90
2024-01-22T01:29:55.821Z,15.63
2024-01-22T01:32:58.724Z,18.50
2024-01-22T01:36:01.608Z,19.33
2024-01-22T01:39:04.610Z,19.90
2024-01-22T01:42:07.644Z,17.13
2024-01-22T01:45:18.069Z,16.50
2024-01-22T01:48:21.504Z,16.77
2024-01-22T01:51:25.602Z,16.45
2024-01-22T01:54:29.897Z,14.80
2024-01-22T01:57:33.037Z,14.63
2024-01-22T02:00:36.131Z,16.20
2024-01-22T02:03:41.639Z,17.63
2024-01-22T02:06:44.538Z,16.27
2024-01-22T02:09:52.314Z,17.08
2024-01-22T02:12:54.948Z,18.93
2024-01-22T02:15:57.690Z,14.43
2024-01-22T02:19:00.549Z,14.90
2024-01-22T02:22:03.254Z,15.82
2024-01-22T02:25:06.474Z,14.27
2024-01-22T02:28:09.313Z,13.53
2024-01-22T02:31:11.976Z,15.40
2024-01-22T02:34:14.698Z,13.60
2024-01-22T02:37:17.455Z,13.55
2024-01-22T02:40:20.109Z,14.98
2024-01-22T02:43:22.774Z,13.87
2024-01-22T02:46:28.438Z,13.97
2024-01-22T02:49:31.208Z,12.55
2024-01-22T02:52:33.884Z,13.98
2024-01-22T02:55:36.560Z,13.15
2024-01-22T02:58:39.316Z,16.83
2024-01-22T03:01:42.073Z,16.13
2024-01-22T03:04:45.176Z,17.10
2024-01-22T03:07:47.832Z,14.82
2024-01-22T03:10:50.757Z,16.73
2024-01-22T03:13:53.421Z,12.50
2024-01-22T03:16:56.051Z,12.90
2024-01-22T03:19:58.708Z,15.60
2024-01-22T03:23:01.325Z,11.88
2024-01-22T03:26:03.943Z,14.35
2024-01-22T03:29:06.634Z,12.77
2024-01-22T03:32:09.290Z,12.30
2024-01-22T03:35:11.944Z,12.18
2024-01-22T03:38:15.034Z,13.15
2024-01-22T03:41:18.037Z,13.07
2024-01-22T03:44:20.691Z,12.93
2024-01-22T03:47:23.400Z,13.10
2024-01-22T03:50:26.117Z,12.73
2024-01-22T03:53:28.941Z,13.70
2024-01-22T03:56:31.555Z,12.02
2024-01-22T03:59:38.551Z,12.90
2024-01-22T04:02:41.316Z,13.43
2024-01-22T04:05:44.299Z,13.93
2024-01-22T04:08:47.542Z,13.13
2024-01-22T04:11:50.391Z,14.75
2024-01-22T04:14:53.327Z,13.93
2024-01-22T04:17:56.093Z,14.70
2024-01-22T04:20:58.952Z,14.77
2024-01-22T04:24:01.693Z,13.20
2024-01-22T04:27:04.628Z,14.63
2024-01-22T04:30:08.046Z,13.90
2024-01-22T04:33:13.656Z,15.13
2024-01-22T04:36:16.564Z,12.75
2024-01-22T04:39:20.846Z,15.65
2024-01-22T04:42:23.680Z,14.50
2024-01-22T04:45:26.398Z,13.60
2024-01-22T04:48:29.296Z,15.73
2024-01-22T04:51:32.004Z,13.70
2024-01-22T04:54:34.652Z,14.45
2024-01-22T04:57:37.330Z,15.30
2024-01-22T05:00:40.003Z,14.53
2024-01-22T05:03:42.687Z,28.80
2024-01-22T05:06:45.537Z,33.10
2024-01-22T05:09:48.340Z,33.78
2024-01-22T05:12:51.074Z,32.17
2024-01-22T05:15:53.796Z,29.73
2024-01-22T05:18:58.912Z,24.07
2024-01-22T05:22:01.733Z,24.55
2024-01-22T05:25:04.922Z,25.30
2024-01-22T05:28:07.585Z,18.92
2024-01-22T05:31:10.297Z,32.63
2024-01-22T05:34:13.021Z,24.80
2024-01-22T05:37:15.774Z,29.50
2024-01-22T05:40:18.504Z,27.67
2024-01-22T05:43:21.193Z,25.02
2024-01-22T05:46:23.861Z,20.70
2024-01-22T05:49:29.998Z,15.43
2024-01-22T05:52:33.435Z,18.15
2024-01-22T05:55:36.701Z,21.58
2024-01-22T05:58:39.354Z,20.10
2024-01-22T06:01:42.354Z,19.70
2024-01-22T06:04:45.101Z,15.93
2024-01-22T06:07:49.048Z,20.08
2024-01-22T06:10:52.282Z,20.90
2024-01-22T06:14:01.775Z,21.70
2024-01-22T06:17:12.233Z,22.60
2024-01-22T06:20:15.355Z,22.63
2024-01-22T06:23:18.201Z,23.27
2024-01-22T06:26:26.983Z,19.88
2024-01-22T06:29:31.494Z,23.38
2024-01-22T06:32:34.478Z,22.33
2024-01-22T06:35:38.106Z,29.40
2024-01-22T06:38:40.901Z,26.65
2024-01-22T06:41:43.591Z,32.17
2024-01-22T06:44:46.257Z,34.65
2024-01-22T06:47:49.418Z,29.60
2024-01-22T06:50:52.690Z,27.30
2024-01-22T06:53:55.369Z,27.67
2024-01-22T06:56:58.078Z,28.63
2024-01-22T07:00:06.290Z,28.23
2024-01-22T07:03:09.829Z,28.83
2024-01-22T07:06:12.735Z,22.07
2024-01-22T07:09:17.402Z,26.30
2024-01-22T07:12:21.342Z,27.00
2024-01-22T07:15:24.275Z,26.25
2024-01-22T07:18:27.090Z,28.93
2024-01-22T07:21:29.858Z,27.40
2024-01-22T07:24:32.983Z,30.13
2024-01-22T07:27:39.137Z,29.40
2024-01-22T07:30:41.814Z,33.22
2024-01-22T07:33:44.733Z,38.73
2024-01-22T07:36:48.053Z,38.70
2024-01-22T07:39:50.711Z,35.17
2024-01-22T07:42:53.590Z,36.90
2024-01-22T07:45:58.233Z,39.40
2024-01-22T07:49:01.996Z,40.27
2024-01-22T07:52:04.938Z,42.43
2024-01-22T07:55:09.224Z,37.80
2024-01-22T07:58:14.138Z,44.38
2024-01-22T08:01:17.048Z,38.35
2024-01-22T08:04:19.925Z,47.47
2024-01-22T08:07:23.944Z,41.67
2024-01-22T08:10:26.750Z,37.97
2024-01-22T08:13:29.488Z,36.72
2024-01-22T08:16:32.166Z,34.05
2024-01-22T08:19:36.224Z,37.93
2024-01-22T08:22:39.797Z,36.97
2024-01-22T08:25:42.468Z,32.75
2024-01-22T08:28:46.298Z,32.97
2024-01-22T08:31:49.023Z,31.33
2024-01-22T08:34:51.912Z,26.13
2024-01-22T08:37:56.110Z,28.47
2024-01-22T08:40:58.784Z,27.08
2024-01-22T08:44:03.333Z,27.88
2024-01-22T08:47:06.029Z,27.70
2024-01-22T08:50:09.007Z,20.07
2024-01-22T08:53:11.915Z,24.40
2024-01-22T08:56:17.293Z,17.33
2024-01-22T08:59:20.008Z,14.13
2024-01-22T09:02:22.630Z,13.65
2024-01-22T09:05:25.334Z,13.70
2024-01-22T09:08:28.430Z,11.73
2024-01-22T09:11:31.008Z,13.80
2024-01-22T09:14:33.654Z,12.82
2024-01-22T09:17:38.331Z,14.50
2024-01-22T09:20:41.091Z,12.20
2024-01-22T09:23:43.808Z,13.57
2024-01-22T09:26:46.904Z,14.40
2024-01-22T09:29:52.154Z,13.40
2024-01-22T09:32:59.190Z,14.68
2024-01-22T09:36:05.222Z,14.50
2024-01-22T09:39:08.666Z,14.50
2024-01-22T09:42:15.707Z,14.60
2024-01-22T09:45:19.467Z,15.68
2024-01-22T09:48:22.614Z,12.98
2024-01-22T09:51:25.501Z,15.57
2024-01-22T09:54:30.966Z,16.87
2024-01-22T09:57:34.004Z,15.60
2024-01-22T10:00:39.210Z,16.55
2024-01-22T10:03:42.494Z,14.90
2024-01-22T10:06:47.542Z,15.97
2024-01-22T10:09:50.291Z,14.93
2024-01-22T10:13:05.503Z,15.88
2024-01-22T10:16:11.662Z,14.43
2024-01-22T10:19:14.427Z,17.02
2024-01-22T10:22:21.063Z,14.83
2024-01-22T10:25:24.552Z,14.30
2024-01-22T10:28:27.278Z,15.70
2024-01-22T10:31:31.191Z,15.00
2024-01-22T10:34:45.085Z,14.20
2024-01-22T10:38:05.866Z,16.77
2024-01-22T10:41:21.714Z,16.57
2024-01-22T10:44:25.070Z,18.50
2024-01-22T10:47:31.424Z,18.20
2024-01-22T10:50:37.954Z,18.83
2024-01-22T10:53:41.327Z,14.97
2024-01-22T10:56:51.863Z,18.43
2024-01-22T11:00:00.853Z,16.63
2024-01-22T11:03:05.894Z,17.73
2024-01-22T11:06:10.902Z,16.13
2024-01-22T11:09:18.286Z,16.30
2024-01-22T11:12:23.708Z,13.60
2024-01-22T11:15:26.510Z,16.15
2024-01-22T11:18:31.242Z,16.20
2024-01-22T11:21:45.113Z,15.43
2024-01-22T11:25:04.245Z,14.67
2024-01-22T11:28:10.630Z,15.10
2024-01-22T11:31:27.210Z,16.00
2024-01-22T11:34:39.850Z,15.77
2024-01-22T11:37:45.104Z,14.55
2024-01-22T11:40:54.100Z,14.00
2024-01-22T11:43:57.422Z,13.50
2024-01-22T11:47:06.841Z,14.40
2024-01-22T11:50:09.989Z,13.68
2024-01-22T11:53:12.859Z,13.00
2024-01-22T11:56:16.635Z,14.37
2024-01-22T11:59:19.455Z,13.40
2024-01-22T12:02:22.318Z,14.48
2024-01-22T12:05:25.166Z,15.07
2024-01-22T12:08:28.391Z,12.75
2024-01-22T12:11:50.698Z,12.83
2024-01-22T12:15:00.303Z,13.20
2024-01-22T12:18:04.447Z,12.40
2024-01-22T12:21:09.403Z,14.75
2024-01-22T12:24:16.314Z,14.07
2024-01-22T12:27:21.356Z,13.43
2024-01-22T12:30:25.124Z,13.47
2024-01-22T12:33:29.720Z,13.95
2024-01-22T12:36:35.334Z,12.98
2024-01-22T12:39:38.929Z,12.50
2024-01-22T12:42:48.432Z,11.90
2024-01-22T12:46:04.479Z,14.83
2024-01-22T12:49:07.358Z,10.70
2024-01-22T12:52:11.630Z,12.63
2024-01-22T12:55:18.138Z,12.63
2024-01-22T12:58:21.310Z,12.53
2024-01-22T13:01:24.201Z,12.77
2024-01-22T13:04:27.185Z,12.57
2024-01-22T13:07:30.125Z,13.43
2024-01-22T13:10:34.814Z,12.43
2024-01-22T13:13:37.697Z,13.03
2024-01-22T13:16:40.589Z,12.97
2024-01-22T13:19:43.827Z,11.88
2024-01-22T13:22:46.666Z,12.35
2024-01-22T13:25:49.802Z,12.82
2024-01-22T13:28:53.592Z,13.70
2024-01-22T13:31:57.171Z,13.50
2024-01-22T13:35:00.269Z,12.35
2024-01-22T13:38:05.672Z,12.40
2024-01-22T13:41:08.918Z,11.73
2024-01-22T13:44:16.472Z,10.87
2024-01-22T13:47:32.979Z,11.23
2024-01-22T13:50:40.352Z,10.45
2024-01-22T13:53:46.420Z,11.40
2024-01-22T13:56:49.809Z,11.13
2024-01-22T13:59:52.809Z,10.60
2024-01-22T14:02:55.623Z,10.87
2024-01-22T14:05:58.528Z,12.35
2024-01-22T14:09:01.559Z,10.43
2024-01-22T14:12:06.623Z,12.27
2024-01-22T14:15:11.145Z,9.23
2024-01-22T14:18:18.353Z,10.43
2024-01-22T14:21:21.924Z,10.85
2024-01-22T14:24:24.741Z,10.90
2024-01-22T14:27:27.605Z,12.82
2024-01-22T14:30:31.212Z,12.33
2024-01-22T14:33:34.109Z,12.73
2024-01-22T14:36:37.167Z,10.50
2024-01-22T14:39:40.266Z,10.27
2024-01-22T14:42:43.242Z,11.45
2024-01-22T14:45:46.080Z,11.23
2024-01-22T14:48:55.686Z,13.37
2024-01-22T14:52:04.545Z,12.43
2024-01-22T14:55:08.442Z,11.52
2024-01-22T14:58:11.214Z,11.80
2024-01-22T15:01:13.888Z,13.10
2024-01-22T15:04:16.729Z,14.50
2024-01-22T15:07:19.623Z,16.13
2024-01-22T15:10:22.388Z,16.65
2024-01-22T15:13:25.076Z,17.00
2024-01-22T15:16:29.078Z,15.10
2024-01-22T15:19:32.018Z,15.47
2024-01-22T15:22:34.973Z,18.55
2024-01-22T15:25:37.862Z,19.17
2024-01-22T15:28:42.182Z,18.10
2024-01-22T15:31:47.407Z,18.87
2024-01-22T15:34:50.479Z,15.70
2024-01-22T15:37:53.247Z,15.95
2024-01-22T15:40:56.516Z,15.18
2024-01-22T15:43:59.982Z,15.48
2024-01-22T15:47:02.699Z,15.63
2024-01-22T15:50:06.455Z,16.93
2024-01-22T15:53:09.203Z,21.08
2024-01-22T15:56:12.184Z,26.85
2024-01-22T15:59:14.896Z,28.10
2024-01-22T16:02:17.617Z,37.90
2024-01-22T16:05:20.453Z,41.63
2024-01-22T16:08:23.464Z,39.70
2024-01-22T16:11:29.439Z,34.53
2024-01-22T16:14:32.228Z,41.30
2024-01-22T16:17:35.014Z,41.23
2024-01-22T16:20:39.649Z,36.17
2024-01-22T16:23:42.396Z,34.60
2024-01-22T16:26:45.204Z,29.85
2024-01-22T16:29:49.976Z,28.38
2024-01-22T16:32:53.039Z,25.93
2024-01-22T16:35:56.823Z,23.97
2024-01-22T16:39:01.484Z,23.27
2024-01-22T16:42:05.889Z,21.08
2024-01-22T16:45:08.984Z,21.88
2024-01-22T16:48:12.390Z,23.13
2024-01-22T16:51:15.337Z,24.80
2024-01-22T16:54:18.210Z,26.42
2024-01-22T16:57:21.126Z,26.67
2024-01-22T17:00:24.241Z,25.77
2024-01-22T17:03:27.835Z,29.33
2024-01-22T17:06:30.924Z,26.63
2024-01-22T17:09:34.138Z,28.27
2024-01-22T17:12:39.740Z,26.25
2024-01-22T17:15:46.667Z,22.40
2024-01-22T17:18:50.558Z,21.43
2024-01-22T17:21:55.177Z,21.43
2024-01-22T17:24:58.979Z,20.60
2024-01-22T17:28:01.968Z,24.20
2024-01-22T17:31:06.595Z,22.30
2024-01-22T17:34:10.079Z,22.37
2024-01-22T17:37:13.910Z,22.97
2024-01-22T17:40:16.940Z,24.70
2024-01-22T17:43:19.780Z,23.58
2024-01-22T17:46:23.212Z,25.98
2024-01-22T17:49:26.150Z,26.37
2024-01-22T17:52:29.345Z,24.77
2024-01-22T17:55:34.365Z,28.50
2024-01-22T17:58:37.300Z,28.90
2024-01-22T18:01:40.336Z,25.05
2024-01-22T18:04:43.661Z,26.53
2024-01-22T18:07:46.781Z,24.50
2024-01-22T18:10:50.907Z,23.95
2024-01-22T18:13:53.969Z,24.90
2024-01-22T18:16:56.848Z,24.63
2024-01-22T18:19:59.666Z,28.83
2024-01-22T18:23:02.777Z,26.70
2024-01-22T18:26:05.619Z,26.10
2024-01-22T18:29:09.751Z,25.88
2024-01-22T18:32:12.805Z,29.60
2024-01-22T18:35:16.110Z,27.10
2024-01-22T18:38:18.930Z,24.50
2024-01-22T18:41:26.352Z,24.73
2024-01-22T18:44:29.150Z,27.75
2024-01-22T18:47:32.760Z,26.92
2024-01-22T18:50:36.995Z,23.30
2024-01-22T18:53:41.434Z,25.83
2024-01-22T18:56:46.770Z,24.33
2024-01-22T18:59:50.773Z,27.17
2024-01-22T19:02:55.041Z,25.75
2024-01-22T19:06:03.246Z,23.60
2024-01-22T19:09:09.242Z,22.70
2024-01-22T19:12:12.042Z,26.65
2024-01-22T19:15:14.879Z,25.23
2024-01-22T19:18:17.834Z,24.92
2024-01-22T19:21:20.678Z,25.27
2024-01-22T19:24:23.532Z,24.87
2024-01-22T19:27:26.318Z,24.35
2024-01-22T19:30:29.613Z,23.52
2024-01-22T19:33:32.694Z,24.00
2024-01-22T19:36:35.461Z,23.33
2024-01-22T19:39:38.408Z,26.20
2024-01-22T19:42:41.200Z,26.85
2024-01-22T19:45:44.381Z,29.23
2024-01-22T19:48:47.175Z,28.92
2024-01-22T19:51:50.440Z,29.03
2024-01-22T19:54:53.321Z,31.93
2024-01-22T19:57:56.146Z,29.15
2024-01-22T20:00:59.465Z,28.42
2024-01-22T20:04:02.617Z,30.23
2024-01-22T20:07:06.898Z,29.97
2024-01-22T20:10:10.535Z,32.47
2024-01-22T20:13:13.323Z,30.52
2024-01-22T20:16:16.348Z,34.80
2024-01-22T20:19:19.427Z,46.70
2024-01-22T20:22:22.578Z,39.23
2024-01-22T20:25:25.256Z,36.30
2024-01-22T20:28:28.329Z,52.40
2024-01-22T20:31:31.217Z,48.13
2024-01-22T20:34:34.243Z,46.72
2024-01-22T20:37:38.763Z,37.70
2024-01-22T20:40:43.416Z,36.27
2024-01-22T20:43:46.487Z,36.67
2024-01-22T20:46:49.304Z,45.38
2024-01-22T20:49:52.510Z,42.70
2024-01-22T20:52:55.327Z,56.70
2024-01-22T20:55:58.176Z,43.23
2024-01-22T20:59:01.683Z,44.72
2024-01-22T21:02:04.687Z,45.47
2024-01-22T21:05:09.215Z,45.65
2024-01-22T21:08:12.226Z,48.30
2024-01-22T21:11:14.974Z,49.53
2024-01-22T21:14:17.737Z,49.85
2024-01-22T21:17:20.495Z,55.72
2024-01-22T21:20:23.650Z,48.83
2024-01-22T21:23:26.488Z,48.33
2024-01-22T21:26:29.629Z,52.40
2024-01-22T21:29:32.840Z,48.55
2024-01-22T21:32:35.538Z,49.35
2024-01-22T21:35:38.224Z,46.65
2024-01-22T21:38:40.916Z,49.53
2024-01-22T21:41:43.686Z,46.90
2024-01-22T21:44:47.175Z,48.00
2024-01-22T21:47:50.437Z,47.10
2024-01-22T21:50:53.566Z,47.40
2024-01-22T21:53:56.273Z,44.67
2024-01-22T21:56:59.351Z,45.87
2024-01-22T22:00:07.522Z,45.88
2024-01-22T22:03:17.449Z,46.20
2024-01-22T22:06:20.519Z,44.78
2024-01-22T22:09:25.329Z,47.10
2024-01-22T22:12:28.188Z,42.40
2024-01-22T22:15:31.132Z,37.28
2024-01-22T22:18:34.064Z,41.38
2024-01-22T22:21:52.989Z,42.38
2024-01-22T22:24:55.700Z,43.73
2024-01-22T22:27:58.517Z,41.77
2024-01-22T22:31:01.185Z,42.65
2024-01-22T22:34:05.119Z,40.67
2024-01-22T22:37:07.885Z,36.08
2024-01-22T22:40:11.417Z,34.83
2024-01-22T22:43:14.494Z,37.70
2024-01-22T22:46:17.145Z,36.70
2024-01-22T22:49:19.893Z,42.60
2024-01-22T22:52:22.688Z,35.67
2024-01-22T22:55:25.344Z,33.63
2024-01-22T22:58:29.383Z,31.67
2024-01-22T23:01:32.171Z,34.15
2024-01-22T23:04:35.225Z,38.70
2024-01-22T23:07:38.068Z,38.08
2024-01-22T23:10:40.720Z,36.47
2024-01-22T23:13:43.956Z,39.47
2024-01-22T23:16:46.616Z,41.90
2024-01-22T23:19:49.795Z,36.70
2024-01-22T23:22:52.535Z,36.97
2024-01-22T23:25:55.663Z,38.87
2024-01-22T23:28:58.328Z,34.70
2024-01-22T23:32:01.007Z,33.70
2024-01-22T23:35:04.597Z,33.78
2024-01-22T23:38:07.240Z,34.75
2024-01-22T23:41:10.518Z,34.63
2024-01-22T23:44:13.313Z,34.63
2024-01-22T23:47:16.015Z,32.15
2024-01-22T23:50:19.166Z,32.75
2024-01-22T23:53:21.981Z,33.17
2024-01-22T23:56:25.422Z,37.37
2024-01-22T23:59:28.207Z,34.97
